ETHL

Details ICAO ETHL
Name LAUPHEIM
Region Germany - Military
Timezone Europe/Berlin (UTC+1.0)
Plans Departing 3
Arriving 4
Stats Elevation 1,766 ft / 538 m (AMSL)
Location 48.221916° 9.908069°
Runways 2
Magnetic Variation 2.694° E
Sunrise 2017-12-17 07:07:18 UTC / 2017-12-17 08:07:18 Local
Sunset 2017-12-17 15:28:23 UTC / 2017-12-17 16:28:23 Local
Advertisement - Login to hide

Runways

ID Width Length Bearing (true) Bearing (mag) Surface Threshold Offset Overrun Length
03 164 ft / 50 m 1,998 ft / 609 m 33.04° 30.35° Grass 0 ft / 0 m 0 ft / 0 m
09 98 ft / 30 m 5,385 ft / 1,642 m 92.86° 90.17° Asphalt 0 ft / 0 m 0 ft / 0 m
21 164 ft / 50 m 1,998 ft / 609 m 213.04° 210.35° Grass 0 ft / 0 m 0 ft / 0 m
27 98 ft / 30 m 5,385 ft / 1,642 m 272.88° 270.19° Asphalt 0 ft / 0 m 0 ft / 0 m

Map

Weather


0- 5 10 15 20 25 30 35+ Temperature / ° C

Clouds and Precipitation
Forecast for 2017-12-17 18:00 UTC. Updated an hour ago

Ground ~20,000 ft ~40,000 ft Winds

METAR

ETHL 171520Z 25006KT 9999 -SN SCT025 BKN045 M00/M04 Q1024 BLU

TAF

Not found

Frequencies

Tower 122.10 MHz LIMA TWR
Approach 123.30 MHz LIMA RADAR
Approach 119.10 MHz LIMA RADAR
Warning: Do not use this data for real-world aviation or navigation. No guarantee of current accuracy is given.